createdAt,value
2018-05-23T00:01:14.648Z,7.60
2018-05-23T00:03:49.597Z,5.97
2018-05-23T00:06:21.437Z,5.97
2018-05-23T00:08:53.085Z,8.23
2018-05-23T00:11:31.301Z,6.90
2018-05-23T00:14:08.092Z,9.07
2018-05-23T00:16:39.179Z,8.10
2018-05-23T00:19:10.103Z,6.97
2018-05-23T00:21:45.103Z,6.97
2018-05-23T00:24:17.239Z,8.77
2018-05-23T00:26:48.449Z,5.83
2018-05-23T00:29:23.204Z,6.47
2018-05-23T00:32:02.361Z,6.97
2018-05-23T00:34:33.372Z,6.20
2018-05-23T00:37:03.787Z,6.20
2018-05-23T00:39:42.339Z,5.77
2018-05-23T00:42:17.527Z,5.50
2018-05-23T00:44:49.511Z,6.27
2018-05-23T00:47:24.649Z,5.33
2018-05-23T00:49:59.812Z,5.40
2018-05-23T00:52:30.856Z,6.33
2018-05-23T00:58:11.643Z,6.30
2018-05-23T01:00:42.047Z,11.37
2018-05-23T01:03:13.343Z,6.47
2018-05-23T01:05:48.347Z,6.70
2018-05-23T01:08:19.409Z,6.67
2018-05-23T01:10:50.411Z,5.80
2018-05-23T01:13:25.649Z,8.03
2018-05-23T01:16:00.368Z,7.73
2018-05-23T01:18:31.269Z,7.87
2018-05-23T01:21:03.058Z,7.10
2018-05-23T01:23:38.183Z,8.97
2018-05-23T01:26:13.186Z,6.77
2018-05-23T01:28:44.011Z,8.73
2018-05-23T01:31:15.674Z,7.30
2018-05-23T01:33:50.650Z,11.87
2018-05-23T01:36:21.688Z,9.03
2018-05-23T01:38:52.870Z,7.03
2018-05-23T01:41:27.693Z,7.00
2018-05-23T01:44:02.937Z,7.07
2018-05-23T01:46:34.035Z,8.37
2018-05-23T01:49:15.561Z,9.63
2018-05-23T01:51:50.200Z,8.70
2018-05-23T01:54:21.431Z,6.67
2018-05-23T01:56:52.460Z,7.73
2018-05-23T01:59:27.771Z,7.43
2018-05-23T02:02:02.240Z,9.80
2018-05-23T02:04:33.179Z,7.67
2018-05-23T02:07:04.197Z,7.23
2018-05-23T02:09:39.332Z,8.60
2018-05-23T02:12:13.721Z,7.53
2018-05-23T02:14:44.731Z,10.60
2018-05-23T02:17:19.553Z,7.47
2018-05-23T02:19:54.755Z,8.77
2018-05-23T02:22:25.885Z,7.53
2018-05-23T02:24:56.971Z,8.20
2018-05-23T02:27:31.656Z,7.53
2018-05-23T02:30:06.506Z,7.70
2018-05-23T02:32:37.537Z,9.40
2018-05-23T02:35:08.683Z,8.50
2018-05-23T02:37:43.617Z,8.57
2018-05-23T02:40:18.724Z,8.47
2018-05-23T02:42:49.787Z,8.57
2018-05-23T02:45:24.666Z,9.30
2018-05-23T02:47:59.856Z,8.80
2018-05-23T02:50:31.040Z,10.57
2018-05-23T02:53:02.246Z,9.10
2018-05-23T02:55:37.277Z,8.53
2018-05-23T02:58:12.344Z,9.47
2018-05-23T03:00:43.706Z,9.93
2018-05-23T03:03:18.521Z,9.60
2018-05-23T03:05:54.103Z,10.97
2018-05-23T03:08:26.033Z,14.67
2018-05-23T03:10:57.081Z,11.57
2018-05-23T03:13:31.931Z,11.83
2018-05-23T03:16:06.780Z,9.63
2018-05-23T03:18:37.065Z,9.83
2018-05-23T03:21:09.133Z,9.60
2018-05-23T03:23:44.065Z,9.03
2018-05-23T03:26:15.090Z,9.37
2018-05-23T03:28:46.198Z,11.10
2018-05-23T03:31:17.179Z,9.60
2018-05-23T03:33:52.015Z,10.03
2018-05-23T03:36:23.068Z,8.93
2018-05-23T03:38:54.974Z,12.20
2018-05-23T03:41:29.887Z,9.50
2018-05-23T03:44:06.096Z,8.60
2018-05-23T03:46:38.169Z,8.97
2018-05-23T03:49:10.375Z,7.77
2018-05-23T03:51:45.881Z,7.77
2018-05-23T03:54:17.581Z,9.13
2018-05-23T03:56:48.571Z,8.53
2018-05-23T03:59:35.775Z,8.27
2018-05-23T04:02:20.044Z,10.77
2018-05-23T04:05:02.273Z,8.90
2018-05-23T04:07:40.312Z,17.93
2018-05-23T04:10:15.402Z,8.90
2018-05-23T04:12:46.589Z,12.37
2018-05-23T04:15:22.756Z,11.47
2018-05-23T04:17:58.610Z,10.47
2018-05-23T04:20:33.593Z,11.03
2018-05-23T04:23:07.125Z,11.87
2018-05-23T04:25:42.068Z,11.53
2018-05-23T04:28:16.980Z,14.37
2018-05-23T04:30:49.047Z,14.23
2018-05-23T04:33:24.171Z,11.77
2018-05-23T04:36:00.465Z,10.73
2018-05-23T04:38:31.411Z,12.87
2018-05-23T04:41:02.593Z,12.77
2018-05-23T04:43:41.724Z,11.00
2018-05-23T04:46:19.254Z,12.17
2018-05-23T04:48:50.903Z,9.20
2018-05-23T04:51:25.683Z,10.07
2018-05-23T04:54:00.917Z,10.47
2018-05-23T04:56:33.022Z,10.67
2018-05-23T04:59:04.993Z,12.17
2018-05-23T05:01:40.882Z,13.30
2018-05-23T05:04:15.481Z,11.83
2018-05-23T05:06:46.479Z,13.77
2018-05-23T05:09:21.773Z,10.03
2018-05-23T05:11:56.588Z,11.87
2018-05-23T05:14:28.881Z,9.70
2018-05-23T05:17:00.510Z,12.67
2018-05-23T05:19:35.614Z,12.83
2018-05-23T05:22:11.140Z,12.70
2018-05-23T05:24:46.436Z,13.17
2018-05-23T05:27:21.120Z,9.00
2018-05-23T05:29:55.949Z,8.27
2018-05-23T05:32:27.689Z,9.80
2018-05-23T05:34:59.316Z,8.35
2018-05-23T05:37:34.587Z,9.02
2018-05-23T05:40:08.088Z,9.63
2018-05-23T05:42:40.679Z,10.80
2018-05-23T05:45:12.293Z,8.48
2018-05-23T05:47:48.390Z,8.90
2018-05-23T05:50:20.029Z,10.23
2018-05-23T05:52:52.475Z,9.18
2018-05-23T05:55:28.479Z,9.95
2018-05-23T05:58:04.124Z,8.10
2018-05-23T06:00:36.737Z,12.18
2018-05-23T06:03:08.415Z,10.05
2018-05-23T06:05:44.547Z,11.50
2018-05-23T06:08:16.867Z,8.73
2018-05-23T06:10:48.360Z,12.88
2018-05-23T06:13:23.734Z,9.85
2018-05-23T06:15:59.544Z,9.38
2018-05-23T06:18:30.899Z,8.68
2018-05-23T06:21:07.079Z,9.48
2018-05-23T06:23:42.510Z,8.65
2018-05-23T06:26:18.773Z,12.32
2018-05-23T06:28:51.022Z,8.77
2018-05-23T06:31:26.787Z,9.77
2018-05-23T06:34:02.387Z,9.00
2018-05-23T06:36:38.206Z,12.40
2018-05-23T06:39:09.841Z,11.10
2018-05-23T06:41:46.003Z,9.60
2018-05-23T06:44:17.776Z,9.38
2018-05-23T06:46:49.405Z,9.32
2018-05-23T06:49:25.116Z,8.80
2018-05-23T06:52:01.199Z,8.70
2018-05-23T06:54:32.702Z,9.20
2018-05-23T06:57:04.445Z,9.50
2018-05-23T06:59:40.105Z,8.75
2018-05-23T07:02:15.475Z,10.27
2018-05-23T07:04:51.596Z,9.75
2018-05-23T07:07:27.528Z,10.35
2018-05-23T07:10:03.116Z,13.35
2018-05-23T07:12:34.993Z,10.32
2018-05-23T07:15:06.819Z,9.57
2018-05-23T07:17:43.842Z,9.68
2018-05-23T07:20:16.209Z,10.07
2018-05-23T07:22:48.806Z,10.27
2018-05-23T07:25:25.328Z,14.40
2018-05-23T07:28:01.015Z,10.15
2018-05-23T07:30:33.270Z,10.20
2018-05-23T07:33:05.461Z,10.88
2018-05-23T07:35:42.962Z,9.70
2018-05-23T07:38:15.518Z,9.18
2018-05-23T07:40:47.619Z,9.00
2018-05-23T07:43:23.427Z,10.57
2018-05-23T07:45:58.985Z,11.10
2018-05-23T07:48:30.990Z,11.02
2018-05-23T07:51:03.413Z,11.60
2018-05-23T07:53:40.460Z,9.50
2018-05-23T07:56:15.491Z,15.10
2018-05-23T07:58:51.798Z,9.75
2018-05-23T08:01:28.026Z,9.20
2018-05-23T08:04:03.925Z,9.63
2018-05-23T08:06:37.378Z,10.00
2018-05-23T08:09:09.190Z,9.35
2018-05-23T08:11:45.491Z,12.30
2018-05-23T08:14:17.085Z,9.35
2018-05-23T08:16:48.675Z,9.82
2018-05-23T08:19:25.124Z,9.15
2018-05-23T08:22:01.439Z,12.00
2018-05-23T08:24:33.389Z,9.02
2018-05-23T08:27:05.785Z,9.90
2018-05-23T08:29:41.441Z,9.95
2018-05-23T08:32:17.247Z,11.50
2018-05-23T08:34:48.887Z,8.93
2018-05-23T08:37:23.931Z,11.57
2018-05-23T08:39:59.595Z,9.77
2018-05-23T08:42:31.266Z,10.70
2018-05-23T08:45:03.178Z,10.07
2018-05-23T08:47:39.474Z,9.85
2018-05-23T08:50:15.860Z,10.52
2018-05-23T08:52:51.611Z,12.95
2018-05-23T08:55:27.313Z,9.88
2018-05-23T08:58:03.237Z,10.13
2018-05-23T09:00:36.080Z,11.90
2018-05-23T09:03:07.759Z,11.02
2018-05-23T09:05:43.820Z,10.43
2018-05-23T09:08:15.445Z,12.02
2018-05-23T09:10:47.975Z,12.73
2018-05-23T09:13:23.797Z,10.65
2018-05-23T09:15:59.838Z,11.48
2018-05-23T09:18:31.519Z,15.98
2018-05-23T09:21:03.160Z,10.70
2018-05-23T09:23:39.126Z,11.02
2018-05-23T09:26:14.861Z,12.68
2018-05-23T09:28:47.123Z,12.65
2018-05-23T09:31:23.079Z,15.20
2018-05-23T09:33:58.645Z,13.25
2018-05-23T09:36:30.561Z,10.90
2018-05-23T09:39:02.759Z,16.98
2018-05-23T09:41:38.458Z,10.52
2018-05-23T09:44:13.529Z,12.43
2018-05-23T09:46:49.941Z,11.23
2018-05-23T09:49:25.556Z,11.10
2018-05-23T09:52:01.376Z,11.60
2018-05-23T09:54:33.802Z,13.65
2018-05-23T09:57:10.801Z,11.40
2018-05-23T09:59:47.032Z,11.95
2018-05-23T10:02:23.199Z,12.07
2018-05-23T10:04:54.959Z,10.95
2018-05-23T10:07:30.714Z,12.02
2018-05-23T10:10:07.206Z,11.65
2018-05-23T10:12:39.025Z,11.35
2018-05-23T10:15:10.878Z,15.85
2018-05-23T10:17:46.708Z,11.57
2018-05-23T10:20:18.470Z,11.07
2018-05-23T10:22:50.176Z,10.25
2018-05-23T10:25:21.852Z,10.07
2018-05-23T10:27:58.340Z,11.70
2018-05-23T10:30:30.556Z,10.60
2018-05-23T10:33:02.386Z,10.27
2018-05-23T10:35:39.377Z,11.68
2018-05-23T10:38:14.560Z,12.20
2018-05-23T10:40:46.502Z,12.37
2018-05-23T10:43:22.747Z,11.60
2018-05-23T10:45:59.545Z,12.13
2018-05-23T10:48:31.242Z,11.95
2018-05-23T10:51:03.526Z,12.90
2018-05-23T10:53:40.482Z,11.88
2018-05-23T10:56:16.212Z,11.43
2018-05-23T10:58:48.785Z,11.12
2018-05-23T11:01:20.516Z,11.95
2018-05-23T11:03:58.124Z,13.23
2018-05-23T11:06:31.111Z,11.07
2018-05-23T11:09:03.096Z,11.93
2018-05-23T11:11:39.811Z,21.70
2018-05-23T11:14:12.243Z,19.83
2018-05-23T11:16:44.044Z,18.92
2018-05-23T11:19:20.165Z,19.53
2018-05-23T11:21:55.526Z,19.50
2018-05-23T11:24:26.577Z,18.80
2018-05-23T11:26:57.669Z,28.53
2018-05-23T11:29:33.748Z,24.77
2018-05-23T11:32:09.832Z,24.10
2018-05-23T11:34:41.060Z,23.60
2018-05-23T11:37:12.153Z,25.73
2018-05-23T11:39:47.518Z,22.93
2018-05-23T11:42:18.764Z,22.80
2018-05-23T11:44:51.044Z,23.97
2018-05-23T11:47:27.558Z,22.67
2018-05-23T11:50:04.071Z,21.87
2018-05-23T11:52:35.263Z,19.57
2018-05-23T11:55:07.486Z,18.00
2018-05-23T11:57:42.489Z,17.40
2018-05-23T12:00:12.751Z,17.87
2018-05-23T12:02:44.688Z,13.70
2018-05-23T12:05:17.931Z,14.23
2018-05-23T12:07:52.894Z,13.23
2018-05-23T12:10:24.094Z,12.87
2018-05-23T12:12:55.210Z,14.37
2018-05-23T12:15:30.668Z,13.03
2018-05-23T12:18:05.326Z,12.93
2018-05-23T12:20:40.835Z,12.20
2018-05-23T12:23:12.080Z,16.80
2018-05-23T12:25:48.506Z,13.33
2018-05-23T12:28:20.944Z,12.93
2018-05-23T12:30:52.990Z,14.77
2018-05-23T12:33:27.881Z,14.70
2018-05-23T12:36:03.194Z,15.57
2018-05-23T12:38:33.984Z,15.13
2018-05-23T12:41:05.273Z,13.00
2018-05-23T12:43:38.872Z,14.03
2018-05-23T12:46:14.002Z,14.80
2018-05-23T12:48:45.198Z,14.90
2018-05-23T12:51:20.474Z,14.10
2018-05-23T12:53:56.201Z,14.53
2018-05-23T12:56:27.926Z,18.20
2018-05-23T12:59:00.050Z,16.90
2018-05-23T13:01:36.169Z,17.03
2018-05-23T13:04:11.542Z,16.67
2018-05-23T13:06:43.689Z,18.77
2018-05-23T13:09:18.795Z,17.00
2018-05-23T13:11:54.472Z,16.23
2018-05-23T13:14:25.627Z,18.67
2018-05-23T13:16:57.104Z,18.37
2018-05-23T13:19:34.268Z,24.30
2018-05-23T13:22:09.157Z,20.27
2018-05-23T13:24:40.864Z,21.27
2018-05-23T13:27:13.063Z,19.43
2018-05-23T13:29:48.538Z,19.33
2018-05-23T13:32:20.598Z,21.70
2018-05-23T13:34:51.672Z,25.33
2018-05-23T13:37:28.670Z,26.43
2018-05-23T13:40:03.977Z,28.43
2018-05-23T13:42:35.745Z,29.07
2018-05-23T13:45:10.927Z,26.27
2018-05-23T13:47:46.720Z,24.77
2018-05-23T13:50:17.932Z,24.93
2018-05-23T13:52:49.068Z,25.90
2018-05-23T13:55:23.846Z,29.47
2018-05-23T13:57:58.888Z,29.23
2018-05-23T14:00:31.032Z,31.50
2018-05-23T14:03:02.362Z,26.17
2018-05-23T14:05:37.422Z,25.43
2018-05-23T14:08:09.622Z,24.17
2018-05-23T14:10:41.627Z,23.30
2018-05-23T14:13:12.866Z,25.03
2018-05-23T14:15:47.664Z,22.43
2018-05-23T14:18:19.654Z,25.37
2018-05-23T14:20:54.534Z,21.83
2018-05-23T14:23:29.869Z,23.43
2018-05-23T14:26:05.547Z,22.77
2018-05-23T14:28:36.716Z,20.93
2018-05-23T14:31:07.829Z,23.67
2018-05-23T14:33:44.126Z,33.53
2018-05-23T14:36:19.021Z,23.57
2018-05-23T14:38:51.039Z,25.33
2018-05-23T14:41:26.187Z,23.17
2018-05-23T14:44:01.723Z,21.40
2018-05-23T14:46:33.034Z,23.17
2018-05-23T14:49:04.273Z,23.97
2018-05-23T14:51:40.290Z,21.97
2018-05-23T14:54:15.541Z,23.03
2018-05-23T14:56:51.485Z,23.47
2018-05-23T14:59:26.878Z,23.67
2018-05-23T15:02:03.375Z,24.03
2018-05-23T15:04:34.447Z,36.47
2018-05-23T15:07:05.567Z,26.30
2018-05-23T15:09:41.097Z,24.17
2018-05-23T15:12:16.883Z,26.03
2018-05-23T15:14:48.216Z,29.13
2018-05-23T15:17:24.296Z,29.50
2018-05-23T15:19:59.193Z,26.53
2018-05-23T15:22:30.436Z,29.70
2018-05-23T15:25:01.858Z,26.87
2018-05-23T15:27:37.004Z,26.03
2018-05-23T15:30:12.534Z,26.97
2018-05-23T15:32:44.357Z,31.13
2018-05-23T15:35:19.552Z,27.07
2018-05-23T15:37:54.588Z,27.17
2018-05-23T15:40:25.702Z,25.73
2018-05-23T15:42:57.575Z,27.20
2018-05-23T15:45:32.804Z,25.93
2018-05-23T15:48:09.754Z,26.60
2018-05-23T15:50:41.262Z,27.97
2018-05-23T15:53:12.558Z,29.50
2018-05-23T15:55:48.476Z,26.43
2018-05-23T15:58:19.745Z,26.20
2018-05-23T16:00:55.072Z,27.97
2018-05-23T16:03:30.883Z,25.57
2018-05-23T16:06:07.070Z,25.77
2018-05-23T16:08:38.942Z,24.25
2018-05-23T16:11:11.218Z,25.50
2018-05-23T16:13:46.934Z,26.40
2018-05-23T16:16:19.442Z,26.08
2018-05-23T16:18:50.729Z,22.52
2018-05-23T16:21:28.468Z,22.98
2018-05-23T16:24:05.384Z,21.12
2018-05-23T16:26:38.068Z,21.62
2018-05-23T16:29:10.366Z,21.05
2018-05-23T16:31:49.066Z,22.33
2018-05-23T16:34:21.030Z,21.05
2018-05-23T16:36:52.704Z,22.02
2018-05-23T16:39:27.946Z,22.65
2018-05-23T16:42:04.257Z,23.23
2018-05-23T16:44:36.184Z,21.35
2018-05-23T16:47:07.814Z,18.62
2018-05-23T16:49:43.848Z,19.15
2018-05-23T16:52:15.566Z,18.30
2018-05-23T16:54:47.408Z,18.40
2018-05-23T16:57:24.231Z,20.37
2018-05-23T17:00:00.039Z,19.98
2018-05-23T17:02:31.656Z,19.95
2018-05-23T17:05:03.440Z,22.90
2018-05-23T17:07:39.436Z,21.12
2018-05-23T17:10:15.526Z,22.05
2018-05-23T17:12:46.908Z,20.95
2018-05-23T17:15:22.143Z,20.50
2018-05-23T17:17:58.484Z,19.90
2018-05-23T17:20:30.584Z,20.15
2018-05-23T17:23:02.361Z,22.27
2018-05-23T17:25:39.274Z,25.23
2018-05-23T17:28:15.764Z,20.03
2018-05-23T17:30:47.400Z,16.83
2018-05-23T17:33:23.541Z,14.48
2018-05-23T17:35:58.580Z,12.57
2018-05-23T17:38:29.976Z,10.97
2018-05-23T17:41:01.700Z,12.23
2018-05-23T17:43:36.876Z,13.17
2018-05-23T17:46:13.556Z,11.80
2018-05-23T17:48:44.612Z,12.67
2018-05-23T17:51:20.216Z,9.43
2018-05-23T17:53:56.172Z,10.70
2018-05-23T17:56:27.929Z,10.20
2018-05-23T17:58:59.024Z,8.83
2018-05-23T18:01:33.862Z,7.87
2018-05-23T18:04:10.576Z,9.97
2018-05-23T18:06:41.718Z,8.93
2018-05-23T18:09:12.743Z,12.57
2018-05-23T18:11:48.416Z,12.63
2018-05-23T18:14:19.498Z,10.27
2018-05-23T18:16:51.896Z,10.30
2018-05-23T18:19:28.390Z,14.27
2018-05-23T18:22:03.564Z,11.53
2018-05-23T18:24:35.222Z,9.33
2018-05-23T18:27:07.091Z,9.33
2018-05-23T18:29:42.870Z,9.57
2018-05-23T18:32:18.072Z,17.10
2018-05-23T18:34:49.332Z,10.80
2018-05-23T18:37:24.471Z,10.83
2018-05-23T18:39:59.431Z,10.30
2018-05-23T18:42:29.988Z,9.43
2018-05-23T18:45:02.012Z,11.03
2018-05-23T18:47:36.786Z,11.57
2018-05-23T18:50:12.518Z,14.33
2018-05-23T18:52:43.660Z,12.80
2018-05-23T18:55:20.166Z,12.33
2018-05-23T18:57:55.297Z,11.37
2018-05-23T19:00:26.398Z,14.37
2018-05-23T19:02:58.291Z,14.57
2018-05-23T19:05:34.882Z,13.67
2018-05-23T19:08:07.840Z,15.33
2018-05-23T19:10:38.957Z,15.73
2018-05-23T19:13:11.082Z,17.53
2018-05-23T19:15:46.266Z,16.80
2018-05-23T19:18:17.324Z,15.57
2018-05-23T19:20:48.179Z,17.17
2018-05-23T19:23:24.112Z,15.90
2018-05-23T19:25:59.520Z,15.70
2018-05-23T19:28:30.696Z,16.30
2018-05-23T19:31:01.979Z,17.23
2018-05-23T19:33:37.573Z,16.23
2018-05-23T19:36:13.249Z,16.33
2018-05-23T19:38:45.248Z,17.03
2018-05-23T19:41:21.285Z,16.73
2018-05-23T19:43:58.231Z,17.20
2018-05-23T19:46:29.550Z,17.33
2018-05-23T19:49:00.738Z,16.73
2018-05-23T19:51:35.864Z,16.40
2018-05-23T19:54:10.937Z,17.07
2018-05-23T19:56:42.204Z,17.87
2018-05-23T19:59:13.307Z,17.37
2018-05-23T20:01:48.347Z,17.27
2018-05-23T20:04:19.845Z,17.83
2018-05-23T20:06:50.778Z,21.17
2018-05-23T20:09:25.802Z,19.00
2018-05-23T20:12:01.082Z,19.03
2018-05-23T20:14:33.777Z,20.67
2018-05-23T20:17:05.116Z,19.77
2018-05-23T20:19:40.360Z,20.20
2018-05-23T20:22:15.931Z,19.63
2018-05-23T20:24:48.580Z,20.43
2018-05-23T20:27:24.928Z,19.23
2018-05-23T20:29:59.811Z,20.03
2018-05-23T20:32:30.770Z,21.87
2018-05-23T20:35:01.964Z,19.80
2018-05-23T20:37:37.426Z,21.97
2018-05-23T20:40:09.198Z,20.60
2018-05-23T20:42:40.828Z,20.97
2018-05-23T20:45:11.995Z,21.23
2018-05-23T20:47:48.007Z,21.60
2018-05-23T20:50:18.958Z,22.60
2018-05-23T20:52:50.665Z,23.03
2018-05-23T20:55:25.287Z,22.47
2018-05-23T20:58:00.321Z,22.37
2018-05-23T21:00:31.144Z,23.97
2018-05-23T21:03:02.139Z,22.50
2018-05-23T21:05:36.657Z,23.07
2018-05-23T21:08:08.132Z,24.07
2018-05-23T21:10:44.187Z,23.47
2018-05-23T21:13:20.222Z,22.57
2018-05-23T21:15:54.757Z,23.10
2018-05-23T21:18:26.492Z,23.53
2018-05-23T21:20:57.346Z,23.43
2018-05-23T21:23:32.169Z,22.37
2018-05-23T21:26:06.212Z,21.10
2018-05-23T21:28:36.996Z,20.90
2018-05-23T21:31:08.232Z,20.40
2018-05-23T21:33:42.940Z,20.33
2018-05-23T21:36:17.296Z,20.20
2018-05-23T21:38:48.212Z,19.57
2018-05-23T21:41:23.844Z,18.90
2018-05-23T21:43:58.430Z,18.93
2018-05-23T21:46:30.621Z,18.80
2018-05-23T21:49:01.674Z,19.43
2018-05-23T21:51:36.462Z,18.80
2018-05-23T21:54:12.213Z,17.80
2018-05-23T21:56:44.024Z,17.00
2018-05-23T21:59:18.876Z,16.87
2018-05-23T22:01:53.539Z,17.47
2018-05-23T22:04:25.082Z,16.60
2018-05-23T22:06:56.827Z,18.30
2018-05-23T22:09:31.814Z,17.90
2018-05-23T22:12:08.113Z,17.70
2018-05-23T22:14:38.878Z,17.83
2018-05-23T22:17:10.392Z,21.37
2018-05-23T22:19:45.070Z,17.00
2018-05-23T22:22:15.857Z,16.10
2018-05-23T22:24:46.736Z,15.30
2018-05-23T22:27:22.378Z,15.90
2018-05-23T22:29:57.820Z,15.63
2018-05-23T22:32:28.810Z,14.57
2018-05-23T22:34:59.600Z,13.80
2018-05-23T22:37:34.558Z,13.30
2018-05-23T22:40:09.698Z,14.03
2018-05-23T22:42:40.353Z,13.07
2018-05-23T22:45:11.244Z,13.57
2018-05-23T22:47:46.551Z,13.27
2018-05-23T22:50:17.315Z,13.17
2018-05-23T22:52:48.723Z,12.33
2018-05-23T22:55:23.924Z,11.97
2018-05-23T22:57:58.422Z,11.80
2018-05-23T23:00:29.293Z,12.57
2018-05-23T23:03:00.172Z,11.60
2018-05-23T23:05:35.231Z,11.57
2018-05-23T23:08:10.438Z,12.23
2018-05-23T23:10:41.807Z,13.80
2018-05-23T23:13:12.902Z,10.83
2018-05-23T23:15:48.748Z,11.97
2018-05-23T23:18:20.520Z,10.97
2018-05-23T23:20:51.808Z,10.03
2018-05-23T23:23:26.416Z,10.40
2018-05-23T23:26:01.629Z,11.23
2018-05-23T23:28:33.291Z,10.93
2018-05-23T23:31:04.265Z,12.40
2018-05-23T23:33:38.975Z,10.10
2018-05-23T23:36:13.662Z,10.60
2018-05-23T23:38:45.431Z,11.17
2018-05-23T23:41:20.600Z,10.40
2018-05-23T23:43:55.363Z,11.13
2018-05-23T23:46:26.640Z,12.20
2018-05-23T23:48:58.521Z,9.93
2018-05-23T23:51:34.459Z,14.07
2018-05-23T23:54:10.311Z,11.13
2018-05-23T23:56:42.120Z,12.70
2018-05-23T23:59:13.112Z,10.97
